Impacts TAF Board INFO
FOR SITUATIONAL AWARENESS. NOT TO BE USED FOR FLIGHT PLANNING PURPOSES.
IDs:

KMTH - Marathon Arpt, FL, US

Issued at 2332 UTC 19 Feb 2018
Updated at 0116 UTC 20 Feb 2018
Potential Impact None Slight Moderate High
Time0053Z 20/02Z 20/03Z 20/04Z 20/05Z 20/06Z 20/07Z 20/08Z 20/09Z 20/10Z 20/11Z 20/12Z 20/13Z 20/14Z>>
Type OBS PRVL PRVL PRVL
  [TEMP]  
PRVL
  [TEMP]  
PRVL
  [TEMP]  
PRVL PRVL PRVL PRVL PRVL PRVL PRVL PRVL
VIS 10 >6 >6 >6
  [5]  
>6
  [5]  
>6
  [5]  
>6 >6 >6 >6 >6 >6 >6 >6
CIG -- -- 50 50
  [20]  
50
  [20]  
50
  [20]  
50 50 50 50 50 50 50 50
Cover CLR SCT OVC OVC
  [OVC]  
OVC
  [OVC]  
OVC
  [OVC]  
OVC OVC OVC OVC OVC OVC OVC OVC
FltCat VFR VFR VFR VFR
  [MVFR]  
VFR
  [MVFR]  
VFR
  [MVFR]  
VFR VFR VFR VFR VFR VFR VFR VFR
WX -- -- VCSH VCSH
  [-SHRA]  
VCSH
  [-SHRA]  
VCSH
  [-SHRA]  
VCSH VCSH VCSH VCSH VCSH VCSH VCSH VCSH
WDir 90 110 100 100
[100]
100
[100]
100
[100]
100 100 100 100 100 100 100 100
WSpd 11 11 12 12
  [12]  
12
  [12]  
12
  [12]  
12 12 12 12 12 12 12 12
WGst -- 20 23 23
  [23]  
23
  [23]  
23
  [23]  
23 23 23 23 23 23 23 23

Raw TAF
KMTH 192332Z 2000/2024 11011G20KT P6SM FEW025 SCT070
  FM200300 10012G23KT P6SM VCSH SCT020 OVC050
  TEMPO 2004/2007 5SM -SHRA BKN020 OVC040
  FM201500 12012G20KT P6SM FEW025 SCT045


Raw METAR
KMTH 200053Z AUTO 09011KT 10SM CLR 25/21 A3019 RMK AO2 SLP222 T02500206
KMTH 192353Z AUTO 09011G18KT 10SM FEW060 25/20 A3018 RMK AO2 SLP220 T02500200 10289 20250 53005
KMTH 192253Z AUTO 09013G19KT 10SM BKN065 26/20 A3018 RMK AO2 SLP218 T02560200

METAR Board
Radar Display
Forecast Discussion

FOR SITUATIONAL AWARENESS. NOT TO BE USED FOR FLIGHT PLANNING PURPOSES.